Time;durP1;ratioP1;P1;durP2;ratioP2;P2;SDS_P1;SDS_P2;PMS_P1;PMS_P2;Temp;Humidity;BMP_temperature;BMP_pressure;BME280_temperature;BME280_humidity;BME280_pressure;Samples;Min_cycle;Max_cycle;Signal;HPM_P1;HPM_P2
2023/09/09 00:00:53;;;;;;;;;;;;;;;;;;4987569;28;19939;-59
2023/09/09 00:03:21;;;;;;;;;;;;;;;;;;4988569;28;21182;-60
2023/09/09 00:05:49;;;;;;;;;;;;;;;;;;4968523;28;19925;-61
2023/09/09 00:08:19;;;;;;;;;;;;;;;;;;4984041;28;19918;-60
2023/09/09 00:10:45;;;;;;;;;;;;;;;;;;4969631;28;19917;-61
2023/09/09 00:13:12;;;;;;;;;;;;;;;;;;4972046;28;19921;-60
2023/09/09 00:15:38;;;;;;;;;;;;;;;;;;4989746;28;19928;-61
2023/09/09 00:18:05;;;;;;;;;;;;;;;;;;4973161;28;19946;-61
2023/09/09 00:20:32;;;;;;;;;;;;;;;;;;4990970;28;20007;-61
2023/09/09 00:23:00;;;;;;;;;;;;;;;;;;4991681;28;19949;-61
2023/09/09 00:25:29;;;;;;;;;;;;;;;;;;4991807;28;19972;-60
2023/09/09 00:27:57;;;;;;;;;;;;;;;;;;4989742;28;20047;-60
2023/09/09 00:30:25;;;;;;;;;;;;;;;;;;4991779;28;19922;-60
2023/09/09 00:32:54;;;;;;;;;;;;;;;;;;4973615;28;19918;-60
2023/09/09 00:35:22;;;;;;;;;;;;;;;;;;4992532;28;20515;-60
2023/09/09 00:37:50;;;;;;;;;;;;;;;;;;4975389;28;19917;-59
2023/09/09 00:40:17;;;;;;;;;;;;;;;;;;4990688;28;19922;-60
2023/09/09 00:42:44;;;;;;;;;;;;;;;;;;4974480;28;19925;-59
2023/09/09 00:45:12;;;;;;;;;;;;;;;;;;4992359;28;19921;-61
2023/09/09 00:47:37;;;;;;;;;;;;;;;;;;4974086;28;19929;-59
2023/09/09 00:50:09;;;;;;;;;;;;;;;;;;4989502;28;19921;-59
2023/09/09 00:52:38;;;;;;;;;;;;;;;;;;4991259;28;20108;-59
2023/09/09 00:55:03;;;;;;;;;;;;;;;;;;4992409;28;20012;-59
2023/09/09 00:57:29;;;;;;;;;;;;;;;;;;4991581;28;20611;-60
2023/09/09 01:00:00;;;;;;;;;;;;;;;;;;4994287;28;22074;-60
2023/09/09 01:02:26;;;;;;;;;;;;;;;;;;4992611;28;20524;-60
2023/09/09 01:04:51;;;;;;;;;;;;;;;;;;4990269;28;19921;-60
2023/09/09 01:07:16;;;;;;;;;;;;;;;;;;4990394;28;19922;-60
2023/09/09 01:09:41;;;;;;;;;;;;;;;;;;4989287;28;20428;-60
2023/09/09 01:12:11;;;;;;;;;;;;;;;;;;4970445;28;19925;-60
2023/09/09 01:14:36;;;;;;;;;;;;;;;;;;4973458;28;19960;-60
2023/09/09 01:17:04;;;;;;;;;;;;;;;;;;4972744;28;19913;-60
2023/09/09 01:19:31;;;;;;;;;;;;;;;;;;4992398;28;20001;-59
2023/09/09 01:22:02;;;;;;;;;;;;;;;;;;4989634;28;20315;-59
2023/09/09 01:24:28;;;;;;;;;;;;;;;;;;4969588;28;19921;-60
2023/09/09 01:26:56;;;;;;;;;;;;;;;;;;4973882;28;19928;-59
2023/09/09 01:29:21;;;;;;;;;;;;;;;;;;4992543;28;19995;-60
2023/09/09 01:31:46;;;;;;;;;;;;;;;;;;4972609;28;19930;-59
2023/09/09 01:34:14;;;;;;;;;;;;;;;;;;4989768;28;19980;-60
2023/09/09 01:36:39;;;;;;;;;;;;;;;;;;4974881;28;19922;-59
2023/09/09 01:39:05;;;;;;;;;;;;;;;;;;4991843;28;20257;-60
2023/09/09 01:41:30;;;;;;;;;;;;;;;;;;4973959;28;19965;-59
2023/09/09 01:43:58;;;;;;;;;;;;;;;;;;4991710;28;21966;-60
2023/09/09 01:46:28;;;;;;;;;;;;;;;;;;4990971;28;20039;-60
2023/09/09 01:48:53;;;;;;;;;;;;;;;;;;4989880;28;20385;-60
2023/09/09 01:51:19;;;;;;;;;;;;;;;;;;4977204;28;20008;-60
2023/09/09 01:53:47;;;;;;;;;;;;;;;;;;4973981;28;19928;-60
2023/09/09 01:56:15;;;;;;;;;;;;;;;;;;4991621;28;19917;-60
2023/09/09 01:58:40;;;;;;;;;;;;;;;;;;4971599;28;20404;-60
2023/09/09 02:01:05;;;;;;;;;;;;;;;;;;4974384;28;19922;-60
2023/09/09 02:03:33;;;;;;;;;;;;;;;;;;4972068;28;19917;-60
2023/09/09 02:06:01;;;;;;;;;;;;;;;;;;4989437;28;19932;-60
2023/09/09 02:08:27;;;;;;;;;;;;;;;;;;4991215;28;19921;-60
2023/09/09 02:10:55;;;;;;;;;;;;;;;;;;4988026;28;19917;-60
2023/09/09 02:13:23;;;;;;;;;;;;;;;;;;4990227;28;19918;-59
2023/09/09 02:15:51;;;;;;;;;;;;;;;;;;4973035;28;19925;-59
2023/09/09 02:18:16;;;;;;;;;;;;;;;;;;4991128;28;19937;-60
2023/09/09 02:20:44;;;;;;;;;;;;;;;;;;4991946;28;19928;-58
2023/09/09 02:23:12;;;;;;;;;;;;;;;;;;4975415;28;19931;-60
2023/09/09 02:25:37;;;;;;;;;;;;;;;;;;4993641;28;19918;-59
2023/09/09 02:28:03;;;;;;;;;;;;;;;;;;4989986;28;19921;-61
2023/09/09 02:30:28;;;;;;;;;;;;;;;;;;4974972;28;20578;-60
2023/09/09 02:32:56;;;;;;;;;;;;;;;;;;4974376;28;20269;-60
2023/09/09 02:35:21;;;;;;;;;;;;;;;;;;4991106;28;19937;-60
2023/09/09 02:37:49;;;;;;;;;;;;;;;;;;4972733;28;19925;-61
2023/09/09 02:40:17;;;;;;;;;;;;;;;;;;4974547;28;19924;-59
2023/09/09 02:42:45;;;;;;;;;;;;;;;;;;4975117;28;19925;-60
2023/09/09 02:45:15;;;;;;;;;;;;;;;;;;4989814;28;19921;-59
2023/09/09 02:47:43;;;;;;;;;;;;;;;;;;4988851;28;19934;-59
2023/09/09 02:50:12;;;;;;;;;;;;;;;;;;4970317;28;19921;-59
2023/09/09 02:52:37;;;;;;;;;;;;;;;;;;4990031;28;19995;-60
2023/09/09 02:55:04;;;;;;;;;;;;;;;;;;4972955;28;19918;-59
2023/09/09 02:57:30;;;;;;;;;;;;;;;;;;4972544;28;20533;-59
2023/09/09 02:59:55;;;;;;;;;;;;;;;;;;4972934;28;19921;-59
2023/09/09 03:02:20;;;;;;;;;;;;;;;;;;4990412;28;19917;-60
2023/09/09 03:04:46;;;;;;;;;;;;;;;;;;4973259;28;19984;-60
2023/09/09 03:07:11;;;;;;;;;;;;;;;;;;4989121;28;20024;-60
2023/09/09 03:09:36;;;;;;;;;;;;;;;;;;4992338;28;19927;-59
2023/09/09 03:12:05;;;;;;;;;;;;;;;;;;4992466;28;20012;-60
2023/09/09 03:14:30;;;;;;;;;;;;;;;;;;4972336;28;20464;-59
2023/09/09 03:16:58;;;;;;;;;;;;;;;;;;4972064;28;19921;-59
2023/09/09 03:19:24;;;;;;;;;;;;;;;;;;4991532;28;20487;-59
2023/09/09 03:21:49;;;;;;;;;;;;;;;;;;4990222;28;19921;-59
2023/09/09 03:24:14;;;;;;;;;;;;;;;;;;4973009;28;19932;-60
2023/09/09 03:26:45;;;;;;;;;;;;;;;;;;4989365;28;19947;-60
2023/09/09 03:29:10;;;;;;;;;;;;;;;;;;4990958;28;19921;-60
2023/09/09 03:31:35;;;;;;;;;;;;;;;;;;4989166;28;19967;-60
2023/09/09 03:34:03;;;;;;;;;;;;;;;;;;4968869;28;19924;-60
2023/09/09 03:36:29;;;;;;;;;;;;;;;;;;4971396;28;19975;-60
2023/09/09 03:38:54;;;;;;;;;;;;;;;;;;4988952;28;20931;-60
2023/09/09 03:41:22;;;;;;;;;;;;;;;;;;4987126;28;20013;-60
2023/09/09 03:43:50;;;;;;;;;;;;;;;;;;4988585;28;19940;-60
2023/09/09 03:46:18;;;;;;;;;;;;;;;;;;4988538;28;19929;-61
2023/09/09 03:48:44;;;;;;;;;;;;;;;;;;4968019;28;20043;-60
2023/09/09 03:51:09;;;;;;;;;;;;;;;;;;4972792;28;19987;-61
2023/09/09 03:53:39;;;;;;;;;;;;;;;;;;4970434;28;20992;-60
2023/09/09 03:56:08;;;;;;;;;;;;;;;;;;4991309;28;21263;-60
2023/09/09 03:58:36;;;;;;;;;;;;;;;;;;4991961;28;19928;-60
2023/09/09 04:01:04;;;;;;;;;;;;;;;;;;4974285;28;20064;-60
2023/09/09 04:03:30;;;;;;;;;;;;;;;;;;4974192;28;19918;-60
2023/09/09 04:05:58;;;;;;;;;;;;;;;;;;4973829;28;20003;-60
2023/09/09 04:08:28;;;;;;;;;;;;;;;;;;4975146;28;19976;-60
2023/09/09 04:10:56;;;;;;;;;;;;;;;;;;4988315;28;20463;-59
2023/09/09 04:13:23;;;;;;;;;;;;;;;;;;4976594;28;20641;-59
2023/09/09 04:15:51;;;;;;;;;;;;;;;;;;4991373;28;19949;-59
2023/09/09 04:18:16;;;;;;;;;;;;;;;;;;4975637;28;20004;-59
2023/09/09 04:20:42;;;;;;;;;;;;;;;;;;4990064;28;20339;-61
2023/09/09 04:23:09;;;;;;;;;;;;;;;;;;4993533;28;19956;-60
2023/09/09 04:25:34;;;;;;;;;;;;;;;;;;4992188;28;20035;-60
2023/09/09 04:28:00;;;;;;;;;;;;;;;;;;4992878;28;19921;-59
2023/09/09 04:30:29;;;;;;;;;;;;;;;;;;4990450;28;20376;-59
2023/09/09 04:32:58;;;;;;;;;;;;;;;;;;4991106;28;19964;-60
2023/09/09 04:35:28;;;;;;;;;;;;;;;;;;4991299;28;20393;-60
2023/09/09 04:37:55;;;;;;;;;;;;;;;;;;4992773;28;19928;-60
2023/09/09 04:40:21;;;;;;;;;;;;;;;;;;4993822;28;19921;-60
2023/09/09 04:42:48;;;;;;;;;;;;;;;;;;4993568;28;19925;-59
2023/09/09 04:45:14;;;;;;;;;;;;;;;;;;4993959;28;21838;-59
2023/09/09 04:47:39;;;;;;;;;;;;;;;;;;4990722;28;19936;-62
2023/09/09 04:50:09;;;;;;;;;;;;;;;;;;4973014;28;20100;-59
2023/09/09 04:52:35;;;;;;;;;;;;;;;;;;4993054;28;19918;-61
2023/09/09 04:55:03;;;;;;;;;;;;;;;;;;4992774;28;19929;-60
2023/09/09 04:57:28;;;;;;;;;;;;;;;;;;4989894;28;19918;-59
2023/09/09 04:59:55;;;;;;;;;;;;;;;;;;4990890;28;20020;-59
2023/09/09 05:02:24;;;;;;;;;;;;;;;;;;4992217;28;20490;-60
2023/09/09 05:04:51;;;;;;;;;;;;;;;;;;4992264;28;19921;-60
2023/09/09 05:07:17;;;;;;;;;;;;;;;;;;4990441;28;20426;-60
2023/09/09 05:09:42;;;;;;;;;;;;;;;;;;4974836;28;19921;-60
2023/09/09 05:12:07;;;;;;;;;;;;;;;;;;4991014;28;19992;-60
2023/09/09 05:14:32;;;;;;;;;;;;;;;;;;4973246;28;21143;-60
2023/09/09 05:16:58;;;;;;;;;;;;;;;;;;4989663;28;20358;-60
2023/09/09 05:19:23;;;;;;;;;;;;;;;;;;4984324;28;19921;-61
2023/09/09 05:21:48;;;;;;;;;;;;;;;;;;4986470;28;20077;-60
2023/09/09 05:24:13;;;;;;;;;;;;;;;;;;4973986;28;19952;-60
2023/09/09 05:26:39;;;;;;;;;;;;;;;;;;4971144;28;20004;-60
2023/09/09 05:29:09;;;;;;;;;;;;;;;;;;4973305;28;19928;-60
2023/09/09 05:31:37;;;;;;;;;;;;;;;;;;4990125;28;19921;-60
2023/09/09 05:34:05;;;;;;;;;;;;;;;;;;4972083;28;19925;-60
2023/09/09 05:36:33;;;;;;;;;;;;;;;;;;4989936;28;19941;-60
2023/09/09 05:38:59;;;;;;;;;;;;;;;;;;4974342;28;20919;-61
2023/09/09 05:41:25;;;;;;;;;;;;;;;;;;4988770;28;19918;-61
2023/09/09 05:43:52;;;;;;;;;;;;;;;;;;4988806;28;19944;-61
2023/09/09 05:46:20;;;;;;;;;;;;;;;;;;4990126;28;19929;-60
2023/09/09 05:48:45;;;;;;;;;;;;;;;;;;4990065;28;19924;-61
2023/09/09 05:51:11;;;;;;;;;;;;;;;;;;4990471;28;19921;-61
2023/09/09 05:53:36;;;;;;;;;;;;;;;;;;4972959;28;20258;-61
2023/09/09 05:56:04;;;;;;;;;;;;;;;;;;4985121;28;19925;-61
2023/09/09 05:58:35;;;;;;;;;;;;;;;;;;4973959;28;19949;-61
2023/09/09 06:01:00;;;;;;;;;;;;;;;;;;4990362;28;19921;-60
2023/09/09 06:03:26;;;;;;;;;;;;;;;;;;4968811;28;20688;-61
2023/09/09 06:05:51;;;;;;;;;;;;;;;;;;4988590;28;19921;-61
2023/09/09 06:08:21;;;;;;;;;;;;;;;;;;4989376;28;20039;-61
2023/09/09 06:10:46;;;;;;;;;;;;;;;;;;4991184;28;19922;-59
2023/09/09 06:13:14;;;;;;;;;;;;;;;;;;4990588;28;19940;-61
2023/09/09 06:15:42;;;;;;;;;;;;;;;;;;4971070;28;19929;-61
2023/09/09 06:18:07;;;;;;;;;;;;;;;;;;4973640;28;19917;-61
2023/09/09 06:20:35;;;;;;;;;;;;;;;;;;4985252;28;19924;-61
2023/09/09 06:23:02;;;;;;;;;;;;;;;;;;4971523;28;20381;-61
2023/09/09 06:25:30;;;;;;;;;;;;;;;;;;4969650;28;20048;-61
2023/09/09 06:27:56;;;;;;;;;;;;;;;;;;4971096;28;19921;-61
2023/09/09 06:30:21;;;;;;;;;;;;;;;;;;4972885;28;20059;-61
2023/09/09 06:32:46;;;;;;;;;;;;;;;;;;4970590;28;20028;-61
2023/09/09 06:35:12;;;;;;;;;;;;;;;;;;4969568;28;19998;-60
2023/09/09 06:37:40;;;;;;;;;;;;;;;;;;4967328;28;19940;-61
2023/09/09 06:40:07;;;;;;;;;;;;;;;;;;4971563;28;20799;-61
2023/09/09 06:42:38;;;;;;;;;;;;;;;;;;4971125;28;20033;-62
2023/09/09 06:45:06;;;;;;;;;;;;;;;;;;4990039;28;19917;-61
2023/09/09 06:47:31;;;;;;;;;;;;;;;;;;4970543;28;19940;-61
2023/09/09 06:49:56;;;;;;;;;;;;;;;;;;4989809;28;20756;-62
2023/09/09 06:52:24;;;;;;;;;;;;;;;;;;4973298;28;19924;-62
2023/09/09 06:54:49;;;;;;;;;;;;;;;;;;4988752;28;19921;-62
2023/09/09 06:57:15;;;;;;;;;;;;;;;;;;4973311;28;19917;-61
2023/09/09 06:59:40;;;;;;;;;;;;;;;;;;4990799;28;20047;-61
2023/09/09 07:02:08;;;;;;;;;;;;;;;;;;4987082;28;19921;-61
2023/09/09 07:04:36;;;;;;;;;;;;;;;;;;4968775;28;19932;-61
2023/09/09 07:07:01;;;;;;;;;;;;;;;;;;4987511;28;19925;-62
2023/09/09 07:09:26;;;;;;;;;;;;;;;;;;4988046;28;20267;-62
2023/09/09 07:11:54;;;;;;;;;;;;;;;;;;4970583;28;19921;-62
2023/09/09 07:14:19;;;;;;;;;;;;;;;;;;4970321;28;20254;-63
2023/09/09 07:16:50;;;;;;;;;;;;;;;;;;4989776;28;19975;-62
2023/09/09 07:19:15;;;;;;;;;;;;;;;;;;4990006;28;20115;-63
2023/09/09 07:21:40;;;;;;;;;;;;;;;;;;4971732;28;19929;-63
2023/09/09 07:24:08;;;;;;;;;;;;;;;;;;4990825;28;19978;-61
2023/09/09 07:26:33;;;;;;;;;;;;;;;;;;4988066;28;19979;-63
2023/09/09 07:28:58;;;;;;;;;;;;;;;;;;4991075;28;20025;-62
2023/09/09 07:31:28;;;;;;;;;;;;;;;;;;4987329;28;20579;-62
2023/09/09 07:33:53;;;;;;;;;;;;;;;;;;4971911;28;20041;-64
2023/09/09 07:36:22;;;;;;;;;;;;;;;;;;4971456;28;19927;-61
2023/09/09 07:38:47;;;;;;;;;;;;;;;;;;4988443;28;19917;-63
2023/09/09 07:41:15;;;;;;;;;;;;;;;;;;4971109;28;20396;-62
2023/09/09 07:43:43;;;;;;;;;;;;;;;;;;4970211;28;19926;-62
2023/09/09 07:46:09;;;;;;;;;;;;;;;;;;4988226;28;19925;-63
2023/09/09 07:48:34;;;;;;;;;;;;;;;;;;4988429;28;19967;-63
2023/09/09 07:50:59;;;;;;;;;;;;;;;;;;4970720;28;20296;-62
2023/09/09 07:53:24;;;;;;;;;;;;;;;;;;4972521;28;19931;-63
2023/09/09 07:55:50;;;;;;;;;;;;;;;;;;4986429;28;19921;-63
2023/09/09 07:58:17;;;;;;;;;;;;;;;;;;4971613;28;20471;-63
2023/09/09 08:00:43;;;;;;;;;;;;;;;;;;4989336;28;19917;-62
2023/09/09 08:03:10;;;;;;;;;;;;;;;;;;4969893;28;19924;-62
2023/09/09 08:05:35;;;;;;;;;;;;;;;;;;4971493;28;19922;-62
2023/09/09 08:08:00;;;;;;;;;;;;;;;;;;4971522;28;21992;-62
2023/09/09 08:10:26;;;;;;;;;;;;;;;;;;4973014;28;19926;-63
2023/09/09 08:12:51;;;;;;;;;;;;;;;;;;4966885;28;19925;-63
2023/09/09 08:15:21;;;;;;;;;;;;;;;;;;4987972;28;19971;-63
2023/09/09 08:17:49;;;;;;;;;;;;;;;;;;4971562;28;20094;-63
2023/09/09 08:20:14;;;;;;;;;;;;;;;;;;4970783;28;19921;-63
2023/09/09 08:22:44;;;;;;;;;;;;;;;;;;4988607;28;19925;-63
2023/09/09 08:25:12;;;;;;;;;;;;;;;;;;4987788;28;19921;-63
2023/09/09 08:27:37;;;;;;;;;;;;;;;;;;4989947;28;19925;-62
2023/09/09 08:30:04;;;;;;;;;;;;;;;;;;4989610;28;19929;-63
2023/09/09 08:32:34;;;;;;;;;;;;;;;;;;4971220;28;19928;-63
2023/09/09 08:34:59;;;;;;;;;;;;;;;;;;4966982;28;20438;-62
2023/09/09 08:37:27;;;;;;;;;;;;;;;;;;4970362;28;20010;-62
2023/09/09 08:39:52;;;;;;;;;;;;;;;;;;4987080;28;20315;-64
2023/09/09 08:42:17;;;;;;;;;;;;;;;;;;4988643;28;19953;-63
2023/09/09 08:44:45;;;;;;;;;;;;;;;;;;4991969;28;20377;-63
2023/09/09 08:47:10;;;;;;;;;;;;;;;;;;4973650;28;19921;-62
2023/09/09 08:49:36;;;;;;;;;;;;;;;;;;4990799;28;19921;-63
2023/09/09 08:52:01;;;;;;;;;;;;;;;;;;4991110;28;19917;-63
2023/09/09 08:54:26;;;;;;;;;;;;;;;;;;4974872;28;19918;-62
2023/09/09 08:56:56;;;;;;;;;;;;;;;;;;4992477;28;19936;-62
2023/09/09 08:59:22;;;;;;;;;;;;;;;;;;4972480;28;19986;-63
2023/09/09 09:01:47;;;;;;;;;;;;;;;;;;4974785;28;20274;-62
2023/09/09 09:04:15;;;;;;;;;;;;;;;;;;4992815;28;21877;-63
2023/09/09 09:06:46;;;;;;;;;;;;;;;;;;4988801;28;20384;-63
2023/09/09 09:09:11;;;;;;;;;;;;;;;;;;4972915;28;19921;-63
2023/09/09 09:11:36;;;;;;;;;;;;;;;;;;4973016;28;19939;-63
2023/09/09 09:14:04;;;;;;;;;;;;;;;;;;4993112;28;19925;-63
2023/09/09 09:16:31;;;;;;;;;;;;;;;;;;4992441;28;19925;-64
2023/09/09 09:18:58;;;;;;;;;;;;;;;;;;4974522;28;19925;-64
2023/09/09 09:21:26;;;;;;;;;;;;;;;;;;4973807;28;19921;-63
2023/09/09 09:23:57;;;;;;;;;;;;;;;;;;4975472;28;19917;-64
2023/09/09 09:26:23;;;;;;;;;;;;;;;;;;4990700;28;19988;-62
2023/09/09 09:28:48;;;;;;;;;;;;;;;;;;4973930;28;19917;-63
2023/09/09 09:31:13;;;;;;;;;;;;;;;;;;4991049;28;19928;-62
2023/09/09 09:33:45;;;;;;;;;;;;;;;;;;4990236;28;20350;-62
2023/09/09 09:36:10;;;;;;;;;;;;;;;;;;4989059;28;19921;-62
2023/09/09 09:38:38;;;;;;;;;;;;;;;;;;4970759;28;20502;-63
2023/09/09 09:41:03;;;;;;;;;;;;;;;;;;4991629;28;19952;-63
2023/09/09 09:43:31;;;;;;;;;;;;;;;;;;4991331;28;20361;-63
2023/09/09 09:45:56;;;;;;;;;;;;;;;;;;4991722;28;19918;-63
2023/09/09 09:48:21;;;;;;;;;;;;;;;;;;4973204;28;19925;-63
2023/09/09 09:50:47;;;;;;;;;;;;;;;;;;4989607;28;19979;-64
2023/09/09 09:53:12;;;;;;;;;;;;;;;;;;4973120;28;19932;-64
2023/09/09 09:55:40;;;;;;;;;;;;;;;;;;4992278;28;20488;-64
2023/09/09 09:58:08;;;;;;;;;;;;;;;;;;4991575;28;19926;-64
2023/09/09 10:00:33;;;;;;;;;;;;;;;;;;4987508;28;19921;-63
2023/09/09 10:03:04;;;;;;;;;;;;;;;;;;4991739;28;20379;-63
2023/09/09 10:05:35;;;;;;;;;;;;;;;;;;4988785;28;19948;-62
2023/09/09 10:08:03;;;;;;;;;;;;;;;;;;4988962;28;19921;-63
2023/09/09 10:10:28;;;;;;;;;;;;;;;;;;4990335;28;20817;-63
2023/09/09 10:12:56;;;;;;;;;;;;;;;;;;4990948;28;19948;-63
2023/09/09 10:15:24;;;;;;;;;;;;;;;;;;4973957;28;21862;-63
2023/09/09 10:17:49;;;;;;;;;;;;;;;;;;4991294;28;19925;-63
2023/09/09 10:20:15;;;;;;;;;;;;;;;;;;4989420;28;19927;-64
2023/09/09 10:22:42;;;;;;;;;;;;;;;;;;4973246;28;19930;-63
2023/09/09 10:25:10;;;;;;;;;;;;;;;;;;4969849;28;19928;-64
2023/09/09 10:27:35;;;;;;;;;;;;;;;;;;4991270;28;20353;-63
2023/09/09 10:30:03;;;;;;;;;;;;;;;;;;4992820;28;19921;-63
2023/09/09 10:32:28;;;;;;;;;;;;;;;;;;4968807;28;19949;-62
2023/09/09 10:34:55;;;;;;;;;;;;;;;;;;4991611;28;20037;-63
2023/09/09 10:37:23;;;;;;;;;;;;;;;;;;4989350;28;19925;-62
2023/09/09 10:39:48;;;;;;;;;;;;;;;;;;4992336;28;19949;-67
2023/09/09 10:42:16;;;;;;;;;;;;;;;;;;4989931;28;19932;-63
2023/09/09 10:44:48;;;;;;;;;;;;;;;;;;4988585;28;19990;-63
2023/09/09 10:47:13;;;;;;;;;;;;;;;;;;4972648;28;19921;-62
2023/09/09 10:49:39;;;;;;;;;;;;;;;;;;4971784;28;19924;-63
2023/09/09 10:52:04;;;;;;;;;;;;;;;;;;4989031;28;19924;-63
2023/09/09 10:54:32;;;;;;;;;;;;;;;;;;4971675;28;22068;-64
2023/09/09 10:57:00;;;;;;;;;;;;;;;;;;4971118;28;19926;-62
2023/09/09 10:59:25;;;;;;;;;;;;;;;;;;4988840;28;19927;-62
2023/09/09 11:01:50;;;;;;;;;;;;;;;;;;4985611;28;21093;-63
2023/09/09 11:04:16;;;;;;;;;;;;;;;;;;4971212;28;19993;-63
2023/09/09 11:06:43;;;;;;;;;;;;;;;;;;4990986;28;19921;-66
2023/09/09 11:09:11;;;;;;;;;;;;;;;;;;4970479;28;19917;-63
2023/09/09 11:11:43;;;;;;;;;;;;;;;;;;4989293;28;19962;-63
2023/09/09 11:14:08;;;;;;;;;;;;;;;;;;4971916;28;20373;-63
2023/09/09 11:16:33;;;;;;;;;;;;;;;;;;4970993;28;19976;-63
2023/09/09 11:19:03;;;;;;;;;;;;;;;;;;4987913;28;19921;-63
2023/09/09 11:21:29;;;;;;;;;;;;;;;;;;4986624;28;19918;-63
2023/09/09 11:23:54;;;;;;;;;;;;;;;;;;4972682;28;20003;-63
2023/09/09 11:26:19;;;;;;;;;;;;;;;;;;4971759;28;19963;-63
2023/09/09 11:28:47;;;;;;;;;;;;;;;;;;4989724;28;19943;-64
2023/09/09 11:31:15;;;;;;;;;;;;;;;;;;4972358;28;20035;-64
2023/09/09 11:33:40;;;;;;;;;;;;;;;;;;4969141;28;19951;-64
2023/09/09 11:36:08;;;;;;;;;;;;;;;;;;4989011;28;19917;-64
2023/09/09 11:38:38;;;;;;;;;;;;;;;;;;4969229;28;19960;-64
2023/09/09 11:41:03;;;;;;;;;;;;;;;;;;4987654;28;19918;-64
2023/09/09 11:43:31;;;;;;;;;;;;;;;;;;4983125;28;20046;-64
2023/09/09 11:45:56;;;;;;;;;;;;;;;;;;4983427;28;20001;-62
2023/09/09 11:48:22;;;;;;;;;;;;;;;;;;4970514;28;19922;-62
2023/09/09 11:50:49;;;;;;;;;;;;;;;;;;4968666;28;19979;-64
2023/09/09 11:53:15;;;;;;;;;;;;;;;;;;4986592;28;20017;-63
2023/09/09 11:55:40;;;;;;;;;;;;;;;;;;4984410;28;20565;-62
2023/09/09 11:58:05;;;;;;;;;;;;;;;;;;4970259;28;20032;-64
2023/09/09 12:00:31;;;;;;;;;;;;;;;;;;4969594;28;19936;-62
2023/09/09 12:02:56;;;;;;;;;;;;;;;;;;4962741;28;19944;-64
2023/09/09 12:05:22;;;;;;;;;;;;;;;;;;4983517;28;19922;-64
2023/09/09 12:07:49;;;;;;;;;;;;;;;;;;4969116;28;20035;-63
2023/09/09 12:10:17;;;;;;;;;;;;;;;;;;4985878;28;20058;-63
2023/09/09 12:12:47;;;;;;;;;;;;;;;;;;4968600;28;19921;-62
2023/09/09 12:15:13;;;;;;;;;;;;;;;;;;4985514;28;19917;-63
2023/09/09 12:17:39;;;;;;;;;;;;;;;;;;4987889;28;19964;-64
2023/09/09 12:20:05;;;;;;;;;;;;;;;;;;4970815;28;19996;-63
2023/09/09 12:22:30;;;;;;;;;;;;;;;;;;4973064;28;20461;-62
2023/09/09 12:24:55;;;;;;;;;;;;;;;;;;4974306;28;19917;-63
2023/09/09 12:27:21;;;;;;;;;;;;;;;;;;4987355;28;19922;-63
2023/09/09 12:29:49;;;;;;;;;;;;;;;;;;4974783;28;20012;-64
2023/09/09 12:32:17;;;;;;;;;;;;;;;;;;4975424;28;20472;-63
2023/09/09 12:34:45;;;;;;;;;;;;;;;;;;4970082;28;19975;-63
2023/09/09 12:37:11;;;;;;;;;;;;;;;;;;4970155;28;19925;-63
2023/09/09 12:39:38;;;;;;;;;;;;;;;;;;4973537;28;19921;-64
2023/09/09 12:42:03;;;;;;;;;;;;;;;;;;4978862;28;19948;-63
2023/09/09 12:44:29;;;;;;;;;;;;;;;;;;4973014;28;19925;-63
2023/09/09 12:46:54;;;;;;;;;;;;;;;;;;4976038;28;19921;-64
2023/09/09 12:49:22;;;;;;;;;;;;;;;;;;4970972;28;19937;-66
2023/09/09 12:51:47;;;;;;;;;;;;;;;;;;4993974;28;20251;-63
2023/09/09 12:54:13;;;;;;;;;;;;;;;;;;4990413;28;19922;-63
2023/09/09 12:56:38;;;;;;;;;;;;;;;;;;4975681;28;19925;-63
2023/09/09 12:59:06;;;;;;;;;;;;;;;;;;4971338;28;19924;-66
2023/09/09 13:01:37;;;;;;;;;;;;;;;;;;4973762;28;20031;-63
2023/09/09 13:04:02;;;;;;;;;;;;;;;;;;4992053;28;19929;-63
2023/09/09 13:06:27;;;;;;;;;;;;;;;;;;4972947;28;20013;-63
2023/09/09 13:08:53;;;;;;;;;;;;;;;;;;4992392;28;19943;-64
2023/09/09 13:11:18;;;;;;;;;;;;;;;;;;4990323;28;20273;-66
2023/09/09 13:13:43;;;;;;;;;;;;;;;;;;4989816;28;20573;-63
2023/09/09 13:16:13;;;;;;;;;;;;;;;;;;4991244;28;19944;-62
2023/09/09 13:18:39;;;;;;;;;;;;;;;;;;4978610;28;20297;-63
2023/09/09 13:21:04;;;;;;;;;;;;;;;;;;4990464;28;19917;-66
2023/09/09 13:23:30;;;;;;;;;;;;;;;;;;4991633;28;20031;-64
2023/09/09 13:25:55;;;;;;;;;;;;;;;;;;4990563;28;20443;-63
2023/09/09 13:28:20;;;;;;;;;;;;;;;;;;4988249;28;20978;-64
2023/09/09 13:30:48;;;;;;;;;;;;;;;;;;4973355;28;19929;-63
2023/09/09 13:33:13;;;;;;;;;;;;;;;;;;4971441;28;19917;-62
2023/09/09 13:35:38;;;;;;;;;;;;;;;;;;4972965;28;19922;-65
2023/09/09 13:38:04;;;;;;;;;;;;;;;;;;4977106;28;20111;-63
2023/09/09 13:40:29;;;;;;;;;;;;;;;;;;4973410;28;19928;-62
2023/09/09 13:42:57;;;;;;;;;;;;;;;;;;4991545;28;20387;-63
2023/09/09 13:45:25;;;;;;;;;;;;;;;;;;4991396;28;19932;-63
2023/09/09 13:47:53;;;;;;;;;;;;;;;;;;4993022;28;19921;-65
2023/09/09 13:50:18;;;;;;;;;;;;;;;;;;4990157;28;19922;-62
2023/09/09 13:52:46;;;;;;;;;;;;;;;;;;4972394;28;20111;-63
2023/09/09 13:55:16;;;;;;;;;;;;;;;;;;4990441;28;20081;-62
2023/09/09 13:57:41;;;;;;;;;;;;;;;;;;4991556;28;19929;-64
2023/09/09 14:00:09;;;;;;;;;;;;;;;;;;4992994;28;19963;-63
2023/09/09 14:02:34;;;;;;;;;;;;;;;;;;4987716;28;19921;-63
2023/09/09 14:05:02;;;;;;;;;;;;;;;;;;4991113;28;19967;-63
2023/09/09 14:07:28;;;;;;;;;;;;;;;;;;4990229;28;20612;-64
2023/09/09 14:09:53;;;;;;;;;;;;;;;;;;4973591;28;19914;-64
2023/09/09 14:12:18;;;;;;;;;;;;;;;;;;4987723;28;19918;-63
2023/09/09 14:14:43;;;;;;;;;;;;;;;;;;4973283;28;19921;-65
2023/09/09 14:17:09;;;;;;;;;;;;;;;;;;4989251;28;20064;-64
2023/09/09 14:19:37;;;;;;;;;;;;;;;;;;4973040;28;21786;-63
2023/09/09 14:22:05;;;;;;;;;;;;;;;;;;4972045;28;19932;-63
2023/09/09 14:24:31;;;;;;;;;;;;;;;;;;4973706;28;19921;-63
2023/09/09 14:26:57;;;;;;;;;;;;;;;;;;4991504;28;19945;-63
2023/09/09 14:29:25;;;;;;;;;;;;;;;;;;4973269;28;19930;-63
2023/09/09 14:31:50;;;;;;;;;;;;;;;;;;4988217;28;19921;-63
2023/09/09 14:34:18;;;;;;;;;;;;;;;;;;4973207;28;19956;-63
2023/09/09 14:36:43;;;;;;;;;;;;;;;;;;4991207;28;20015;-62
2023/09/09 14:39:09;;;;;;;;;;;;;;;;;;4973293;28;19921;-62
2023/09/09 14:41:37;;;;;;;;;;;;;;;;;;4989155;28;19940;-63
2023/09/09 14:44:02;;;;;;;;;;;;;;;;;;4966677;28;19926;-63
2023/09/09 14:46:30;;;;;;;;;;;;;;;;;;4952278;28;19929;-63
2023/09/09 14:49:01;;;;;;;;;;;;;;;;;;4948555;28;20755;-64
2023/09/09 14:51:26;;;;;;;;;;;;;;;;;;4967092;28;19953;-61
2023/09/09 14:53:51;;;;;;;;;;;;;;;;;;4933313;28;20013;-62
2023/09/09 14:56:17;;;;;;;;;;;;;;;;;;4951378;28;19925;-62
2023/09/09 14:58:45;;;;;;;;;;;;;;;;;;4951510;28;19928;-62
2023/09/09 15:01:13;;;;;;;;;;;;;;;;;;4950219;28;19933;-63
2023/09/09 15:03:41;;;;;;;;;;;;;;;;;;4934150;28;19923;-62
2023/09/09 15:06:09;;;;;;;;;;;;;;;;;;4946505;28;19989;-62
2023/09/09 15:08:34;;;;;;;;;;;;;;;;;;4950814;28;19929;-61
2023/09/09 15:11:00;;;;;;;;;;;;;;;;;;4949677;28;19925;-62
2023/09/09 15:13:27;;;;;;;;;;;;;;;;;;4948760;28;20633;-62
2023/09/09 15:15:53;;;;;;;;;;;;;;;;;;4966523;28;19953;-62
2023/09/09 15:18:18;;;;;;;;;;;;;;;;;;4949390;28;20136;-63
2023/09/09 15:20:44;;;;;;;;;;;;;;;;;;4946885;28;19930;-62
2023/09/09 15:23:09;;;;;;;;;;;;;;;;;;4949861;28;20570;-62
2023/09/09 15:25:35;;;;;;;;;;;;;;;;;;4948531;28;20401;-62
2023/09/09 15:28:00;;;;;;;;;;;;;;;;;;4951062;28;20014;-62
2023/09/09 15:30:28;;;;;;;;;;;;;;;;;;4946154;28;19949;-61
2023/09/09 15:32:53;;;;;;;;;;;;;;;;;;4933239;28;20481;-62
2023/09/09 15:35:18;;;;;;;;;;;;;;;;;;4965324;28;19940;-62
2023/09/09 15:37:44;;;;;;;;;;;;;;;;;;4931886;28;20448;-62
2023/09/09 15:40:10;;;;;;;;;;;;;;;;;;4965521;28;19918;-61
2023/09/09 15:42:40;;;;;;;;;;;;;;;;;;4970597;28;20016;-63
2023/09/09 15:45:05;;;;;;;;;;;;;;;;;;4986623;28;19936;-62
2023/09/09 15:47:33;;;;;;;;;;;;;;;;;;4984538;28;20021;-61
2023/09/09 15:50:01;;;;;;;;;;;;;;;;;;4985935;28;19914;-62
2023/09/09 15:52:27;;;;;;;;;;;;;;;;;;4988887;28;19965;-62
2023/09/09 15:54:52;;;;;;;;;;;;;;;;;;4990010;28;19917;-62
2023/09/09 15:57:20;;;;;;;;;;;;;;;;;;4973393;28;19936;-62
2023/09/09 15:59:47;;;;;;;;;;;;;;;;;;4975386;28;20554;-61
2023/09/09 16:02:15;;;;;;;;;;;;;;;;;;4972053;28;20055;-61
2023/09/09 16:04:43;;;;;;;;;;;;;;;;;;4989916;28;19989;-61
2023/09/09 16:07:11;;;;;;;;;;;;;;;;;;4988824;28;19948;-60
2023/09/09 16:09:38;;;;;;;;;;;;;;;;;;4974267;28;19958;-61
2023/09/09 16:12:03;;;;;;;;;;;;;;;;;;4975396;28;19921;-62
2023/09/09 16:14:28;;;;;;;;;;;;;;;;;;4988134;28;19918;-63
2023/09/09 16:16:58;;;;;;;;;;;;;;;;;;4965874;28;20084;-60
2023/09/09 16:19:29;;;;;;;;;;;;;;;;;;4974159;28;19987;-60
2023/09/09 16:21:55;;;;;;;;;;;;;;;;;;4987966;28;19971;-61
2023/09/09 16:24:21;;;;;;;;;;;;;;;;;;4969742;28;19918;-61
2023/09/09 16:26:48;;;;;;;;;;;;;;;;;;4973996;28;19956;-62
2023/09/09 16:29:14;;;;;;;;;;;;;;;;;;4987042;28;20472;-61
2023/09/09 16:31:39;;;;;;;;;;;;;;;;;;4972934;28;20016;-61
2023/09/09 16:34:06;;;;;;;;;;;;;;;;;;4987533;28;19917;-61
2023/09/09 16:36:35;;;;;;;;;;;;;;;;;;4986832;28;19926;-61
2023/09/09 16:39:00;;;;;;;;;;;;;;;;;;4972805;28;20308;-61
2023/09/09 16:41:25;;;;;;;;;;;;;;;;;;4985223;28;19932;-60